createdAt,value
2018-04-27T00:01:59.578Z,99.90
2018-04-27T00:05:05.483Z,99.90
2018-04-27T00:08:11.196Z,99.90
2018-04-27T00:11:16.868Z,99.90
2018-04-27T00:14:22.667Z,99.90
2018-04-27T00:17:28.589Z,99.90
2018-04-27T00:20:34.213Z,99.90
2018-04-27T00:23:40.126Z,99.90
2018-04-27T00:26:46.016Z,99.90
2018-04-27T00:29:52.012Z,99.90
2018-04-27T00:32:58.249Z,99.90
2018-04-27T00:36:04.859Z,99.90
2018-04-27T00:39:10.673Z,99.90
2018-04-27T00:42:16.536Z,99.90
2018-04-27T00:45:22.466Z,99.90
2018-04-27T00:48:28.430Z,99.90
2018-04-27T00:51:34.648Z,99.90
2018-04-27T00:54:40.555Z,99.90
2018-04-27T00:57:46.632Z,99.90
2018-04-27T01:00:52.509Z,99.90
2018-04-27T01:03:58.438Z,99.90
2018-04-27T01:07:04.156Z,99.90
2018-04-27T01:10:10.579Z,99.90
2018-04-27T01:13:17.185Z,99.90
2018-04-27T01:16:23.317Z,99.90
2018-04-27T01:19:29.244Z,99.90
2018-04-27T01:22:35.335Z,99.90
2018-04-27T01:25:41.636Z,99.90
2018-04-27T01:28:47.649Z,99.90
2018-04-27T01:31:53.728Z,99.90
2018-04-27T01:34:59.687Z,99.90
2018-04-27T01:38:05.565Z,99.90
2018-04-27T01:41:11.451Z,99.90
2018-04-27T01:44:17.483Z,99.90
2018-04-27T01:47:23.382Z,99.90
2018-04-27T01:50:29.245Z,99.90
2018-04-27T01:53:35.404Z,99.90
2018-04-27T01:56:41.233Z,99.90
2018-04-27T01:59:48.080Z,99.90
2018-04-27T02:02:53.988Z,99.90
2018-04-27T02:06:00.154Z,99.90
2018-04-27T02:09:06.108Z,99.90
2018-04-27T02:12:11.940Z,99.90
2018-04-27T02:15:17.929Z,99.90
2018-04-27T02:18:24.705Z,99.90
2018-04-27T02:21:30.668Z,99.90
2018-04-27T02:24:36.708Z,99.90
2018-04-27T02:27:42.681Z,99.90
2018-04-27T02:30:48.646Z,99.90
2018-04-27T02:33:54.546Z,99.90
2018-04-27T02:37:00.610Z,99.90
2018-04-27T02:40:06.519Z,99.90
2018-04-27T02:43:15.257Z,99.90
2018-04-27T02:46:20.956Z,99.90
2018-04-27T02:49:26.846Z,99.90
2018-04-27T02:52:32.934Z,99.90
2018-04-27T02:55:39.097Z,99.90
2018-04-27T02:58:45.843Z,99.90
2018-04-27T03:01:51.788Z,99.90
2018-04-27T03:04:57.770Z,99.90
2018-04-27T03:08:04.084Z,99.90
2018-04-27T03:11:10.711Z,99.90
2018-04-27T03:14:16.667Z,99.90
2018-04-27T03:17:22.697Z,99.90
2018-04-27T03:20:29.636Z,99.90
2018-04-27T03:23:35.495Z,99.90
2018-04-27T03:26:41.861Z,99.90
2018-04-27T03:29:47.805Z,99.90
2018-04-27T03:32:54.069Z,99.90
2018-04-27T03:36:00.235Z,99.90
2018-04-27T03:39:06.930Z,99.90
2018-04-27T03:42:13.609Z,99.90
2018-04-27T03:45:19.787Z,99.90
2018-04-27T03:48:25.678Z,99.90
2018-04-27T03:51:33.163Z,99.90
2018-04-27T03:54:40.850Z,99.90
2018-04-27T03:57:46.917Z,99.90
2018-04-27T04:01:05.762Z,99.90
2018-04-27T04:04:23.657Z,99.90
2018-04-27T04:07:29.434Z,99.90
2018-04-27T04:10:35.386Z,99.90
2018-04-27T04:13:42.307Z,99.90
2018-04-27T04:16:48.392Z,99.90
2018-04-27T04:19:54.419Z,99.90
2018-04-27T04:23:00.752Z,99.90
2018-04-27T04:26:06.900Z,99.90
2018-04-27T04:29:12.699Z,99.90
2018-04-27T04:32:18.544Z,99.90
2018-04-27T04:35:24.513Z,99.90
2018-04-27T04:38:31.548Z,99.90
2018-04-27T04:41:37.468Z,99.90
2018-04-27T04:44:44.302Z,99.90
2018-04-27T04:47:50.295Z,99.90
2018-04-27T04:50:56.120Z,99.90
2018-04-27T04:54:02.073Z,99.90
2018-04-27T04:57:08.183Z,99.90
2018-04-27T05:00:14.232Z,99.90
2018-04-27T05:03:20.378Z,99.90
2018-04-27T05:06:26.184Z,99.90
2018-04-27T05:09:32.205Z,99.90
2018-04-27T05:12:38.245Z,99.90
2018-04-27T05:15:44.196Z,99.90
2018-04-27T05:18:56.207Z,99.90
2018-04-27T05:22:02.384Z,99.90
2018-04-27T05:25:08.274Z,99.90
2018-04-27T05:28:14.369Z,99.90
2018-04-27T05:31:39.744Z,99.90
2018-04-27T05:34:45.903Z,99.90
2018-04-27T05:37:51.871Z,99.90
2018-04-27T05:41:01.631Z,99.90
2018-04-27T05:44:07.452Z,99.90
2018-04-27T05:47:13.215Z,99.90
2018-04-27T05:50:19.096Z,99.90
2018-04-27T05:53:25.271Z,99.90
2018-04-27T05:56:31.418Z,99.90
2018-04-27T05:59:37.284Z,99.90
2018-04-27T06:02:43.377Z,99.90
2018-04-27T06:05:49.010Z,99.90
2018-04-27T06:08:54.914Z,99.90
2018-04-27T06:12:00.916Z,99.90
2018-04-27T06:15:06.990Z,99.90
2018-04-27T06:18:13.116Z,99.90
2018-04-27T06:21:19.212Z,99.90
2018-04-27T06:24:25.289Z,99.90
2018-04-27T06:27:31.412Z,99.90
2018-04-27T06:30:37.243Z,99.90
2018-04-27T06:33:43.067Z,99.90
2018-04-27T06:36:48.920Z,99.90
2018-04-27T06:39:54.899Z,99.90
2018-04-27T06:43:00.690Z,99.90
2018-04-27T06:46:06.494Z,99.90
2018-04-27T06:49:11.691Z,99.90
2018-04-27T06:52:17.434Z,99.90
2018-04-27T06:55:27.314Z,99.90
2018-04-27T06:58:32.969Z,99.90
2018-04-27T07:01:48.762Z,99.90
2018-04-27T07:04:54.886Z,99.90
2018-04-27T07:08:00.822Z,99.90
2018-04-27T07:11:06.886Z,99.90
2018-04-27T07:14:13.005Z,99.90
2018-04-27T07:17:18.827Z,99.90
2018-04-27T07:20:24.782Z,99.90
2018-04-27T07:23:30.752Z,99.90
2018-04-27T07:26:36.716Z,99.90
2018-04-27T07:29:42.570Z,99.90
2018-04-27T07:32:48.536Z,99.90
2018-04-27T07:35:55.556Z,99.90
2018-04-27T07:39:01.575Z,99.90
2018-04-27T07:42:07.303Z,99.90
2018-04-27T07:45:13.620Z,99.90
2018-04-27T07:48:19.666Z,99.90
2018-04-27T07:51:25.841Z,99.90
2018-04-27T07:54:32.520Z,99.90
2018-04-27T07:57:39.259Z,99.90
2018-04-27T08:00:45.317Z,99.90
2018-04-27T08:03:51.446Z,99.90
2018-04-27T08:06:57.238Z,99.90
2018-04-27T08:10:04.213Z,99.90
2018-04-27T08:13:13.111Z,99.90
2018-04-27T08:16:19.039Z,99.90
2018-04-27T08:19:25.074Z,99.90
2018-04-27T08:22:30.952Z,99.90
2018-04-27T08:25:37.943Z,99.90
2018-04-27T08:28:44.984Z,99.90
2018-04-27T08:31:51.133Z,99.90
2018-04-27T08:34:57.161Z,99.90
2018-04-27T08:38:03.183Z,99.90
2018-04-27T08:41:09.484Z,99.90
2018-04-27T08:44:14.641Z,99.90
2018-04-27T08:47:20.693Z,99.90
2018-04-27T08:50:26.697Z,99.90
2018-04-27T08:53:32.796Z,99.90
2018-04-27T08:56:38.790Z,99.90
2018-04-27T08:59:44.874Z,99.90
2018-04-27T09:02:50.844Z,99.90
2018-04-27T09:05:56.700Z,99.90
2018-04-27T09:09:02.822Z,99.90
2018-04-27T09:12:08.860Z,99.90
2018-04-27T09:15:15.825Z,99.90
2018-04-27T09:18:21.110Z,99.90
2018-04-27T09:21:26.209Z,99.90
2018-04-27T09:24:32.218Z,99.90
2018-04-27T09:27:38.314Z,99.90
2018-04-27T09:30:44.405Z,99.90
2018-04-27T09:33:50.838Z,99.90
2018-04-27T09:36:56.582Z,99.90
2018-04-27T09:40:02.669Z,99.90
2018-04-27T09:43:08.681Z,99.90
2018-04-27T09:46:14.742Z,99.90
2018-04-27T09:49:20.888Z,99.90
2018-04-27T09:52:27.378Z,99.90
2018-04-27T09:55:34.043Z,99.90
2018-04-27T09:58:39.984Z,99.90
2018-04-27T10:01:46.098Z,99.90
2018-04-27T10:04:52.022Z,99.90
2018-04-27T10:07:58.169Z,99.90
2018-04-27T10:11:04.175Z,96.50
2018-04-27T10:14:10.543Z,96.40
2018-04-27T10:17:17.374Z,96.40
2018-04-27T10:20:23.485Z,93.60
2018-04-27T10:23:29.177Z,95.20
2018-04-27T10:26:37.128Z,92.60
2018-04-27T10:29:43.343Z,93.30
2018-04-27T10:32:49.356Z,94.90
2018-04-27T10:35:55.285Z,95.00
2018-04-27T10:39:02.386Z,95.00
2018-04-27T10:42:08.329Z,94.80
2018-04-27T10:45:14.188Z,95.10
2018-04-27T10:48:20.255Z,94.20
2018-04-27T10:51:26.285Z,91.20
2018-04-27T10:54:32.358Z,92.80
2018-04-27T10:57:38.146Z,90.30
2018-04-27T11:03:19.302Z,76.20
2018-04-27T11:06:25.244Z,76.20
2018-04-27T11:09:33.303Z,78.40
2018-04-27T11:12:42.090Z,78.60
2018-04-27T11:15:49.477Z,75.30
2018-04-27T11:18:56.244Z,70.00
2018-04-27T11:22:02.281Z,74.40
2018-04-27T11:25:07.866Z,72.70
2018-04-27T11:28:15.040Z,68.40
2018-04-27T11:31:21.981Z,68.40
2018-04-27T11:34:27.251Z,69.10
2018-04-27T11:37:33.269Z,71.30
2018-04-27T11:40:39.360Z,68.40
2018-04-27T11:43:45.158Z,67.30
2018-04-27T11:46:51.481Z,66.00
2018-04-27T11:49:57.620Z,64.40
2018-04-27T11:53:05.679Z,63.30
2018-04-27T11:56:12.665Z,63.10
2018-04-27T11:59:18.572Z,59.00
2018-04-27T12:02:24.765Z,57.50
2018-04-27T12:05:30.754Z,60.90
2018-04-27T12:08:36.653Z,62.20
2018-04-27T12:11:43.033Z,60.00
2018-04-27T12:14:49.530Z,59.30
2018-04-27T12:17:55.541Z,61.60
2018-04-27T12:21:01.485Z,60.00
2018-04-27T12:24:07.460Z,54.70
2018-04-27T12:27:14.737Z,59.80
2018-04-27T12:30:20.728Z,59.90
2018-04-27T12:33:26.794Z,56.00
2018-04-27T12:36:34.009Z,54.20
2018-04-27T12:39:40.104Z,54.20
2018-04-27T12:42:45.944Z,54.20
2018-04-27T12:45:52.032Z,55.90
2018-04-27T12:48:58.160Z,53.70
2018-04-27T12:52:04.255Z,53.20
2018-04-27T12:55:10.374Z,52.60
2018-04-27T12:58:20.184Z,54.90
2018-04-27T13:01:26.622Z,53.50
2018-04-27T13:04:32.595Z,58.10
2018-04-27T13:07:38.697Z,51.40
2018-04-27T13:10:44.927Z,51.40
2018-04-27T13:13:51.365Z,47.40
2018-04-27T13:16:59.427Z,49.00
2018-04-27T13:20:06.874Z,49.10
2018-04-27T13:23:13.644Z,47.90
2018-04-27T13:26:20.615Z,49.00
2018-04-27T13:29:27.218Z,47.00
2018-04-27T13:32:33.366Z,48.70
2018-04-27T13:35:39.552Z,46.70
2018-04-27T13:38:46.453Z,46.40
2018-04-27T13:41:52.601Z,46.90
2018-04-27T13:44:59.953Z,46.30
2018-04-27T13:48:06.660Z,45.80
2018-04-27T13:51:13.765Z,47.80
2018-04-27T13:54:19.968Z,46.00
2018-04-27T13:57:26.792Z,45.90
2018-04-27T14:00:32.650Z,44.20
2018-04-27T14:03:39.963Z,42.20
2018-04-27T14:06:47.049Z,42.10
2018-04-27T14:09:53.506Z,42.00
2018-04-27T14:13:00.596Z,42.80
2018-04-27T14:16:08.457Z,45.30
2018-04-27T14:19:13.934Z,45.20
2018-04-27T14:22:21.693Z,44.50
2018-04-27T14:25:29.495Z,43.30
2018-04-27T14:28:38.617Z,43.00
2018-04-27T14:31:45.107Z,40.80
2018-04-27T14:34:53.083Z,41.90
2018-04-27T14:38:01.361Z,43.40
2018-04-27T14:41:08.207Z,41.40
2018-04-27T14:44:15.961Z,42.60
2018-04-27T14:47:22.726Z,43.10
2018-04-27T14:50:29.658Z,42.40
2018-04-27T14:53:36.167Z,42.50
2018-04-27T14:56:42.077Z,42.10
2018-04-27T14:59:48.731Z,43.00
2018-04-27T15:02:55.435Z,43.40
2018-04-27T15:06:01.638Z,43.30
2018-04-27T15:09:08.387Z,41.40
2018-04-27T15:12:16.031Z,40.70
2018-04-27T15:15:23.182Z,41.60
2018-04-27T15:18:29.459Z,41.60
2018-04-27T15:21:35.468Z,42.40
2018-04-27T15:24:41.668Z,42.40
2018-04-27T15:27:48.219Z,42.10
2018-04-27T15:30:54.295Z,41.00
2018-04-27T15:34:00.405Z,41.60
2018-04-27T15:37:08.404Z,41.80
2018-04-27T15:40:16.756Z,42.50
2018-04-27T15:43:24.271Z,40.60
2018-04-27T15:46:33.704Z,41.60
2018-04-27T15:49:40.873Z,40.50
2018-04-27T15:52:46.985Z,40.50
2018-04-27T15:55:53.589Z,41.60
2018-04-27T15:58:59.520Z,43.40
2018-04-27T16:02:05.239Z,42.50
2018-04-27T16:05:10.455Z,42.70
2018-04-27T16:08:16.562Z,43.10
2018-04-27T16:11:22.806Z,43.70
2018-04-27T16:14:29.572Z,45.00
2018-04-27T16:17:35.421Z,42.70
2018-04-27T16:20:42.540Z,43.40
2018-04-27T16:23:50.252Z,43.70
2018-04-27T16:26:56.374Z,43.70
2018-04-27T16:30:02.508Z,43.90
2018-04-27T16:33:07.901Z,46.50
2018-04-27T16:36:14.096Z,49.70
2018-04-27T16:39:20.498Z,49.60
2018-04-27T16:42:26.619Z,53.70
2018-04-27T16:45:32.573Z,54.20
2018-04-27T16:48:38.704Z,54.20
2018-04-27T16:51:44.969Z,55.50
2018-04-27T16:54:51.187Z,58.00
2018-04-27T16:57:56.414Z,57.90
2018-04-27T17:01:02.647Z,58.00
2018-04-27T17:04:08.842Z,60.20
2018-04-27T17:07:15.685Z,59.90
2018-04-27T17:10:21.697Z,59.30
2018-04-27T17:13:27.916Z,61.30
2018-04-27T17:16:35.096Z,64.60
2018-04-27T17:19:42.409Z,64.60
2018-04-27T17:22:48.735Z,64.10
2018-04-27T17:25:56.000Z,66.50
2018-04-27T17:29:03.121Z,67.70
2018-04-27T17:32:09.455Z,67.70
2018-04-27T17:35:16.613Z,74.70
2018-04-27T17:38:23.681Z,83.00
2018-04-27T17:41:30.051Z,95.30
2018-04-27T17:44:36.469Z,95.20
2018-04-27T17:47:42.334Z,99.90
2018-04-27T17:50:48.463Z,99.90
2018-04-27T17:53:54.580Z,99.90
2018-04-27T17:57:00.835Z,99.90
2018-04-27T18:00:07.147Z,99.90
2018-04-27T18:03:13.236Z,99.90
2018-04-27T18:06:18.369Z,99.90
2018-04-27T18:09:25.372Z,99.90
2018-04-27T18:12:31.448Z,99.90
2018-04-27T18:15:37.721Z,99.90
2018-04-27T18:18:45.933Z,99.90
2018-04-27T18:21:52.830Z,99.90
2018-04-27T18:24:58.863Z,99.90
2018-04-27T18:28:04.908Z,99.90
2018-04-27T18:31:11.223Z,99.90
2018-04-27T18:34:17.280Z,99.90
2018-04-27T18:37:23.730Z,99.90
2018-04-27T18:40:29.451Z,99.90
2018-04-27T18:43:36.861Z,99.90
2018-04-27T18:46:53.611Z,99.90
2018-04-27T18:50:03.045Z,99.90
2018-04-27T18:53:11.187Z,99.90
2018-04-27T18:56:18.798Z,99.90
2018-04-27T18:59:26.827Z,99.90
2018-04-27T19:02:33.565Z,99.90
2018-04-27T19:05:40.992Z,99.90
2018-04-27T19:08:48.869Z,99.90
2018-04-27T19:11:54.852Z,99.90
2018-04-27T19:15:02.138Z,99.90
2018-04-27T19:18:13.269Z,99.90
2018-04-27T19:21:19.255Z,99.90
2018-04-27T19:24:25.264Z,99.90
2018-04-27T19:27:34.161Z,99.90
2018-04-27T19:30:44.274Z,99.90
2018-04-27T19:33:51.031Z,99.90
2018-04-27T19:36:57.864Z,99.90
2018-04-27T19:40:03.754Z,99.90
2018-04-27T19:43:10.995Z,99.90
2018-04-27T19:46:17.790Z,99.90
2018-04-27T19:49:25.851Z,99.90
2018-04-27T19:52:33.687Z,99.90
2018-04-27T19:55:40.852Z,99.90
2018-04-27T19:58:51.041Z,99.90
2018-04-27T20:01:58.069Z,99.90
2018-04-27T20:05:06.192Z,99.90
2018-04-27T20:08:12.293Z,99.90
2018-04-27T20:11:19.462Z,99.90
2018-04-27T20:14:25.626Z,99.90
2018-04-27T20:17:40.037Z,99.90
2018-04-27T20:20:47.702Z,99.90
2018-04-27T20:23:54.798Z,99.90
2018-04-27T20:27:01.836Z,99.90
2018-04-27T20:30:09.912Z,99.90
2018-04-27T20:33:15.675Z,99.90
2018-04-27T20:36:23.118Z,99.90
2018-04-27T20:39:29.126Z,99.90
2018-04-27T20:42:36.849Z,99.90
2018-04-27T20:45:48.021Z,99.90
2018-04-27T20:48:54.796Z,99.90
2018-04-27T20:52:01.226Z,99.90
2018-04-27T20:55:10.188Z,99.90
2018-04-27T20:58:16.268Z,99.90
2018-04-27T21:01:24.327Z,99.90
2018-04-27T21:04:31.273Z,99.90
2018-04-27T21:07:38.369Z,99.90
2018-04-27T21:10:45.453Z,99.90
2018-04-27T21:13:54.064Z,99.90
2018-04-27T21:17:00.076Z,99.90
2018-04-27T21:20:06.200Z,99.90
2018-04-27T21:23:11.463Z,99.90
2018-04-27T21:26:18.714Z,99.90
2018-04-27T21:29:24.632Z,99.90
2018-04-27T21:32:30.868Z,99.90
2018-04-27T21:35:42.851Z,99.90
2018-04-27T21:39:02.250Z,99.90
2018-04-27T21:42:22.950Z,99.90
2018-04-27T21:45:29.047Z,99.90
2018-04-27T21:48:47.127Z,99.90
2018-04-27T21:51:59.287Z,99.90
2018-04-27T21:55:04.611Z,99.90
2018-04-27T21:58:21.698Z,99.90
2018-04-27T22:01:30.485Z,99.90
2018-04-27T22:04:39.896Z,99.90
2018-04-27T22:07:51.913Z,99.90
2018-04-27T22:10:57.833Z,99.90
2018-04-27T22:14:05.824Z,99.90
2018-04-27T22:20:52.286Z,99.90
2018-04-27T22:24:03.741Z,99.90
2018-04-27T22:27:24.308Z,99.90
2018-04-27T22:30:48.811Z,99.90
2018-04-27T22:34:04.421Z,99.90
2018-04-27T22:37:11.514Z,99.90
2018-04-27T22:43:52.875Z,99.90
2018-04-27T22:46:59.935Z,99.90
2018-04-27T22:50:06.554Z,99.90
2018-04-27T22:56:38.498Z,99.90
2018-04-27T22:59:47.590Z,99.90
2018-04-27T23:02:55.313Z,99.90
2018-04-27T23:06:04.555Z,99.90
2018-04-27T23:09:16.180Z,99.90
2018-04-27T23:12:25.575Z,99.90
2018-04-27T23:15:34.010Z,99.90
2018-04-27T23:18:46.026Z,99.90
2018-04-27T23:21:58.941Z,99.90
2018-04-27T23:28:40.482Z,99.90
2018-04-27T23:31:46.484Z,99.90
2018-04-27T23:34:52.951Z,99.90
2018-04-27T23:38:01.263Z,99.90
2018-04-27T23:41:09.156Z,99.90
2018-04-27T23:44:15.157Z,99.90
2018-04-27T23:47:21.250Z,99.90
2018-04-27T23:50:27.303Z,99.90
2018-04-27T23:53:34.281Z,99.90
2018-04-27T23:56:45.328Z,99.90
